Siasconset, MA (02564)

12:59 AM EDT on August 27, 2016 (GMT -0400)
NOS_NWLON | | Change Station

Elev 0 ft 41.28 °N, 70.10 °W | Updated 47 minutes ago

Fog
Fog
72 °F
Feels Like 72 °F
N
2
Wind Variable Wind from South
Gusts 5.0 mph

Today
High -- | Low -- °F
--% Chance of Precip.
Yesterday
High -- | Low -- °F
Precip. -- in
Pressure 30.03 in
Visibility 0.2 miles
Clouds
Dew Point Not available.
Humidity Not available.
Rainfall in
Snow Depth Not available.
6:01 AM 7:19 PM
Waning Crescent, 28% visible
METAR KACK 270453Z AUTO 00000KT 1/4SM R24/0800V1200FT FG VV002 22/21 A3003 RMK AO2 SLP167 T02170211 402610217 TSNO
Pressure 30.03 in
Visibility 0.2 miles
Clouds
Dew Point Not available.
Humidity Not available.
Rainfall in
Snow Depth Not available.
6:01 AM 7:19 PM
Waning Crescent, 28% visible
METAR KACK 270453Z AUTO 00000KT 1/4SM R24/0800V1200FT FG VV002 22/21 A3003 RMK AO2 SLP167 T02170211 402610217 TSNO

10-Day Weather Forecast

Almanac

Astronomy

Aug. 27, 2016 Rise Set
Actual Time
Civil Twilight
Nautical Twilight
Astronomical Twilight
Moon
Length of Visible Light
Length of Day
Tomorrow will be .
, % of the Moon is Illuminated

Today's Extremes

State Highs State Lows

Community

WunderPhotos

Upload Photos

1,935,299 photos uploaded!

WunderBlog® & News

Nearby

Air Quality

  Air Quality AQ Index Pollutant
Not available.

Snow Depth

Station Depth Elevation

Earthquake Activity

City Distance Mag. Time & Date
Minimum magnitude displayed is 2.5.

Coastal Water Temperatures

Place Temperature

Stations

Nearby Weather Stations

Station Location Temp. Windchill Dew Point Humidity Wind Precip. Elev Updated Type
                   

Watches & Warnings

There are currently no watches in effect.